< < Back
Terminal Aerodrome Forecast


Current Version              Previous Versions:   1  2  3  4  5  6  7  8  9  

Terminal Aerodrome Forecast

974
FTUS42 KFFC 030758 AAA
TAFFTY
TAF AMD
KFTY 030758Z 0308/0406 00000KT P6SM SCT025 BKN100
     FM030900 00000KT 5SM BR SCT009 BKN015
     FM031100 24004KT 6SM BR BKN008
     FM031400 27006KT P6SM OVC015
     FM031700 30010KT P6SM BKN050
     FM040200 30005KT P6SM SCT100=



Latest METAR

550
SAUS70 KWBC 031200 RRD
MTRFTY
METAR KFTY 031153Z 21003KT 10SM BKN008 BKN049 OVC075 18/17 A2991 RMK AO2
SLP120 70007 T01830167 10189 20172 53007


USA.gov is the U.S. government's official web portal to all federal, state and local government web resources and services.